Jackson, Tennessee
Current Conditions -  °F | °C
As of 4:10 PM on Thursday 27 Nov 2014 (Local Time) from KMKL Reporting Station
Overcast Overcast  
Wind Chill: 32°   Ceiling: 3000
Heat Index: 37°   Visibility: 10mi
Dew Point: 27°   Wind: 7mph
Humidity: 65%   Direction: 10°N
Pressure: 30.48"   Gusts: NA
Location:  35.61°N, 88.82°W
Report Text: KMKL 272210Z 01006KT 10SM BKN030 OVC035 03/M03 A3048 RMK AO2
Loading
Personal Weather Stations






























Interactive Weather Map New forecast layout! Learn more

10-Day Weather Forecast

Advertisements
Track Severe Weather on mobile